Kezdőlap
METAR-TAF:

METAR-TAF

Repülőterek :

Yao, Japán

földrajzi szélesség: 34-36N, földrajzi hosszúság: 135-36E, magasság: 10 m

Jelenlegi meteorológiai megfigyelések

A jelentés 9 órával és 13 perccel ezelõtt készült, 10:00 UTC
Nyugat-délnyugati szél 4 kt
Hőmérséklet 22°C
Páratartalom 60%
Légköri nyomás 1013 hPa
Látótávolság 10 km, vagy több
Kevés felhő 2000 lábon
Szakadozott felhőzet

METAR: RJOY 201000Z 25004KT 9999 FEW020 BKN/// 22/14 Q1013

Idő: 04:13 (19:13 UTC)


TAF: hiányzik

Meteorológiai megfigyelések és előrejelzések több, mint 4000 repülőtéren (METAR és TAF jelentéseket).

A térképen piros és sárga pontok jelzik az elérhető meteorológiai állomásokat.

Mozgassa az egeret a pont fölött, hogy megjelenjen az állomás neve.

Azután kattintson az időjárási megfigyelések és előrejelzések megtekintéséhez.

A térkép megváltoztatása: kattintson a fekete keresztel jelölt zöld gombra ráközelítéshez, a vonallal jelölt zöld gombra távolításhoz, vagy a zöld nyilakra a szomszédos térképek eléréséhez.


METAR-TAF: